Time;durP1;ratioP1;P1;durP2;ratioP2;P2;SDS_P1;SDS_P2;PMS_P1;PMS_P2;Temp;Humidity;BMP_temperature;BMP_pressure;BME280_temperature;BME280_humidity;BME280_pressure;Samples;Min_cycle;Max_cycle;Signal;HPM_P1;HPM_P2
2022/10/24 00:01:38;;;;;;;2.15;1.65;;;;;;;-4.47;67.15;97539.00;6391393;27;20043;-63
2022/10/24 00:04:42;;;;;;;1.77;1.67;;;;;;;-4.76;67.92;97550.81;6392946;27;20043;-63
2022/10/24 00:07:48;;;;;;;1.92;1.73;;;;;;;-4.72;67.85;97551.72;6393013;27;20042;-63
2022/10/24 00:10:52;;;;;;;1.65;1.20;;;;;;;-4.70;68.14;97539.72;6392631;27;20035;-64
2022/10/24 00:14:01;;;;;;;3.15;2.15;;;;;;;-4.82;68.75;97552.50;6392810;27;20413;-64
2022/10/24 00:17:06;;;;;;;1.52;1.20;;;;;;;-5.01;69.26;97547.25;6392764;27;20569;-64
2022/10/24 00:20:08;;;;;;;1.27;1.15;;;;;;;-5.05;69.00;97542.09;6391560;27;20039;-64
2022/10/24 00:23:12;;;;;;;2.17;1.98;;;;;;;-5.05;69.22;97549.78;6391347;27;20117;-63
2022/10/24 00:26:16;;;;;;;3.65;1.95;;;;;;;-5.11;69.37;97527.50;6392576;27;20069;-64
2022/10/24 00:29:18;;;;;;;2.67;2.05;;;;;;;-5.08;69.99;97542.06;6392402;27;20497;-64
2022/10/24 00:32:26;;;;;;;2.05;1.85;;;;;;;-5.31;70.28;97518.81;6391124;27;20035;-64
2022/10/24 00:35:28;;;;;;;4.50;2.55;;;;;;;-5.22;70.62;97534.25;6390904;27;20034;-63
2022/10/24 00:38:35;;;;;;;3.20;2.15;;;;;;;-5.35;70.76;97524.72;6392089;27;20433;-63
2022/10/24 00:41:41;;;;;;;2.65;1.45;;;;;;;-5.30;70.91;97529.06;6392082;27;20342;-63
2022/10/24 00:44:48;;;;;;;2.00;1.90;;;;;;;-5.37;71.11;97523.88;6388295;27;20497;-64
2022/10/24 00:47:50;;;;;;;1.90;1.80;;;;;;;-5.30;71.05;97520.50;6374718;27;20035;-63
2022/10/24 00:50:56;;;;;;;1.75;1.00;;;;;;;-5.10;71.14;97521.50;6374713;27;20036;-63
2022/10/24 00:54:06;;;;;;;2.15;1.92;;;;;;;-5.30;70.88;97525.63;6374763;27;20520;-63
2022/10/24 00:57:26;;;;;;;3.22;1.55;;;;;;;-5.31;71.33;97518.81;6373120;27;20047;-64
2022/10/24 01:00:32;;;;;;;3.00;2.08;;;;;;;-5.46;71.45;97530.66;6374674;27;20409;-64
2022/10/24 01:03:39;;;;;;;4.07;2.55;;;;;;;-5.26;71.51;97522.25;6374522;27;20042;-64
2022/10/24 01:06:50;;;;;;;2.92;1.75;;;;;;;-5.22;71.50;97514.59;6373862;27;20084;-64
2022/10/24 01:10:21;;;;;;;3.07;2.27;;;;;;;-5.25;71.36;97519.69;6374187;27;20039;-64
2022/10/24 01:13:51;;;;;;;2.28;1.50;;;;;;;-5.26;71.18;97522.25;6372679;27;20444;-63
2022/10/24 01:17:24;;;;;;;3.35;1.98;;;;;;;-5.06;70.98;97514.72;6374290;27;20454;-63
2022/10/24 01:20:57;;;;;;;3.22;2.10;;;;;;;-5.02;71.26;97512.16;6349796;27;20051;-63
2022/10/24 01:24:49;;;;;;;2.33;1.55;;;;;;;-4.97;71.09;97515.63;6370549;27;20501;-62
2022/10/24 01:28:14;;;;;;;3.47;2.45;;;;;;;-4.93;71.36;97518.19;6338360;27;20053;-63
2022/10/24 01:31:44;;;;;;;3.08;1.77;;;;;;;-4.91;71.37;97504.53;6372552;27;20043;-63
2022/10/24 01:34:56;;;;;;;4.32;2.35;;;;;;;-5.12;71.35;97505.25;6371905;27;20043;-64
2022/10/24 01:38:21;;;;;;;3.15;1.95;;;;;;;-5.15;71.75;97509.50;6373761;27;20038;-63
2022/10/24 01:41:28;;;;;;;2.35;1.48;;;;;;;-5.29;71.73;97496.59;6371685;27;20051;-63
2022/10/24 01:44:34;;;;;;;4.00;2.42;;;;;;;-5.36;71.93;97502.50;6371891;27;20413;-64
2022/10/24 01:47:49;;;;;;;4.28;2.47;;;;;;;-5.51;72.29;97478.47;6373395;27;20047;-64
2022/10/24 01:50:59;;;;;;;3.30;2.03;;;;;;;-5.65;72.70;97477.50;6373126;27;20042;-63
2022/10/24 01:54:05;;;;;;;1.92;1.55;;;;;;;-5.54;72.68;97469.91;6371433;27;20047;-64
2022/10/24 01:57:09;;;;;;;2.88;2.38;;;;;;;-5.71;72.56;97485.13;6372151;27;20039;-64
2022/10/24 02:00:21;;;;;;;3.33;1.98;;;;;;;-5.77;72.73;97482.53;6373087;27;20039;-64
2022/10/24 02:03:53;;;;;;;3.08;2.47;;;;;;;-5.78;72.32;97480.78;6372625;27;20047;-64
2022/10/24 02:06:57;;;;;;;3.38;1.70;;;;;;;-5.78;72.81;97476.50;6372820;27;20492;-63
2022/10/24 02:10:06;;;;;;;;;;;;;;;-5.62;72.23;97471.53;6373280;27;20046;-64
2022/10/24 02:13:35;;;;;;;1.50;1.35;;;;;;;-5.53;72.51;97477.59;6372745;27;20025;-64
2022/10/24 02:16:37;;;;;;;4.13;2.38;;;;;;;-5.68;73.12;97467.22;6372725;27;20394;-64
2022/10/24 02:19:38;;;;;;;1.85;1.65;;;;;;;-5.78;72.94;97465.41;6372481;27;20035;-64
2022/10/24 02:23:14;;;;;;;3.08;2.20;;;;;;;-5.61;73.22;97458.72;6372324;27;20519;-64
2022/10/24 02:26:26;;;;;;;2.80;2.10;;;;;;;-5.53;72.47;97454.50;6370401;27;20051;-64
2022/10/24 02:29:37;;;;;;;1.50;1.40;;;;;;;-5.48;72.77;97460.53;6371282;27;20043;-64
2022/10/24 02:32:50;;;;;;;4.22;2.28;;;;;;;-5.54;72.87;97450.25;6372479;27;20047;-65
2022/10/24 02:35:55;;;;;;;2.40;2.20;;;;;;;-5.38;72.72;97452.91;6370635;27;20041;-64
2022/10/24 02:39:01;;;;;;;2.30;2.10;;;;;;;-5.51;72.78;97428.88;6372113;27;20043;-64
2022/10/24 02:42:10;;;;;;;3.35;2.70;;;;;;;-5.28;72.56;97426.47;6371997;27;20405;-64
2022/10/24 02:45:14;;;;;;;4.05;2.42;;;;;;;-5.19;72.41;97436.78;6371359;27;20059;-64
2022/10/24 02:48:20;;;;;;;2.47;2.25;;;;;;;-5.23;72.55;97429.94;6371646;27;20066;-63
2022/10/24 02:51:33;;;;;;;2.72;2.28;;;;;;;-5.15;72.61;97433.41;6371763;27;20409;-64
2022/10/24 02:54:37;;;;;;;4.25;2.53;;;;;;;-5.11;72.32;97430.00;6371075;27;20127;-63
2022/10/24 02:57:41;;;;;;;2.60;2.40;;;;;;;-5.14;72.35;97424.84;6371387;27;20483;-64
2022/10/24 03:00:44;;;;;;;2.45;1.75;;;;;;;-4.97;71.79;97430.94;6371539;27;20043;-64
2022/10/24 03:03:50;;;;;;;3.65;2.55;;;;;;;-4.83;71.96;97427.59;6370885;27;20043;-63
2022/10/24 03:06:52;;;;;;;2.80;1.67;;;;;;;-4.69;71.00;97418.22;6370877;27;20035;-63
2022/10/24 03:09:54;;;;;;;1.98;1.85;;;;;;;-4.71;71.65;97407.06;6370922;27;20141;-64
2022/10/24 03:13:02;;;;;;;2.45;1.80;;;;;;;-4.67;71.37;97406.25;6370835;27;20080;-63
2022/10/24 03:16:04;;;;;;;2.00;1.77;;;;;;;-4.42;70.41;97411.44;6371227;27;20084;-63
2022/10/24 03:19:10;;;;;;;4.00;1.88;;;;;;;-4.42;70.54;97412.31;6371048;27;20098;-63
2022/10/24 03:22:12;;;;;;;2.67;1.67;;;;;;;-4.41;70.45;97401.19;6371126;27;20084;-63
2022/10/24 03:25:13;;;;;;;2.65;2.45;;;;;;;-4.35;70.08;97398.63;6370918;27;20049;-64
2022/10/24 03:28:17;;;;;;;1.85;1.40;;;;;;;-4.26;69.58;97387.50;6370990;27;20039;-64
2022/10/24 03:31:25;;;;;;;4.93;2.03;;;;;;;-4.00;69.14;97394.41;6370705;27;20066;-63
2022/10/24 03:34:32;;;;;;;3.67;1.95;;;;;;;-4.01;69.07;97392.69;6370828;28;20043;-64
2022/10/24 03:37:39;;;;;;;7.25;3.58;;;;;;;-3.98;68.61;97397.84;6370764;28;20046;-64
2022/10/24 03:40:43;;;;;;;3.33;1.85;;;;;;;-3.78;67.80;97405.56;6370573;27;20043;-64
2022/10/24 03:43:47;;;;;;;4.15;3.00;;;;;;;-3.81;67.86;97398.69;6369494;27;20424;-64
2022/10/24 03:46:50;;;;;;;5.05;2.97;;;;;;;-3.74;67.86;97392.69;6370962;28;20039;-64
2022/10/24 03:49:52;;;;;;;6.22;2.90;;;;;;;-3.73;68.07;97379.00;6370116;27;20058;-64
2022/10/24 03:52:56;;;;;;;5.00;2.38;;;;;;;-3.63;68.48;97378.09;6370518;28;20089;-64
2022/10/24 03:55:59;;;;;;;3.05;1.90;;;;;;;-3.40;67.53;97372.06;6370537;28;20043;-64
2022/10/24 03:59:03;;;;;;;3.00;2.28;;;;;;;-3.12;67.39;97377.16;6370612;28;20039;-64
2022/10/24 04:02:06;;;;;;;2.70;2.42;;;;;;;-3.06;67.43;97382.28;6370609;28;20039;-64
2022/10/24 04:05:08;;;;;;;1.67;1.40;;;;;;;-2.92;67.65;97375.38;6370264;28;20035;-64
2022/10/24 04:08:09;;;;;;;1.52;1.00;;;;;;;-2.66;66.60;97367.56;6370386;28;20134;-64
2022/10/24 04:11:13;;;;;;;2.67;1.80;;;;;;;-2.62;66.35;97363.25;6370478;28;20416;-64
2022/10/24 04:14:16;;;;;;;3.22;2.13;;;;;;;-2.58;66.48;97364.94;6370583;28;20050;-63
2022/10/24 04:17:20;;;;;;;5.28;2.42;;;;;;;-2.48;66.64;97346.00;6369415;28;20051;-64
2022/10/24 04:20:27;;;;;;;9.43;2.45;;;;;;;-2.23;65.68;97346.69;6371459;27;20039;-63
2022/10/24 04:23:34;;;;;;;1.40;1.30;;;;;;;-2.06;64.86;97352.59;6375342;27;20453;-65
2022/10/24 04:26:40;;;;;;;3.85;1.70;;;;;;;-1.90;64.67;97340.41;6375171;27;20043;-64
2022/10/24 04:29:44;;;;;;;2.88;1.33;;;;;;;-1.77;64.56;97345.47;6373410;27;20154;-64
2022/10/24 04:32:45;;;;;;;3.00;1.90;;;;;;;-1.68;63.80;97341.09;6375261;27;20039;-63
2022/10/24 04:35:51;;;;;;;2.78;1.27;;;;;;;-1.65;63.96;97340.22;6375208;27;20406;-63
2022/10/24 04:38:52;;;;;;;2.43;1.57;;;;;;;-1.71;64.48;97335.09;6374384;27;20575;-63
2022/10/24 04:42:00;;;;;;;3.20;1.45;;;;;;;-1.48;63.64;97333.16;6374885;27;20437;-64
2022/10/24 04:45:07;;;;;;;4.55;2.55;;;;;;;-1.51;63.97;97333.19;6374692;27;20153;-63
2022/10/24 04:48:14;;;;;;;0.90;0.88;;;;;;;-1.42;63.98;97335.66;6374585;27;20133;-63
2022/10/24 04:51:22;;;;;;;2.45;1.65;;;;;;;-1.41;63.60;97342.56;6374528;27;20049;-63
2022/10/24 04:54:23;;;;;;;2.33;1.55;;;;;;;-1.38;64.31;97324.47;6372579;27;20450;-63
2022/10/24 04:57:29;;;;;;;2.55;2.03;;;;;;;-1.31;63.05;97325.25;6373241;27;20042;-64
2022/10/24 05:00:30;;;;;;;5.85;2.47;;;;;;;-1.45;63.92;97312.47;6374322;27;20039;-63
2022/10/24 05:03:34;;;;;;;1.67;1.58;;;;;;;-1.27;63.57;97316.59;6374306;27;20039;-63
2022/10/24 05:06:36;;;;;;;;;;;;;;;-1.28;63.96;97325.19;6374647;27;20125;-64
2022/10/24 05:09:41;;;;;;;5.30;1.95;;;;;;;-1.37;64.18;97314.97;6374330;27;20316;-64
2022/10/24 05:12:48;;;;;;;5.38;2.92;;;;;;;-1.27;64.03;97298.53;6374123;27;20039;-64
2022/10/24 05:15:52;;;;;;;3.25;2.28;;;;;;;-1.24;64.53;97319.16;6373339;27;20049;-64
2022/10/24 05:18:54;;;;;;;7.07;1.98;;;;;;;-1.15;64.12;97315.59;6372715;27;20046;-63
2022/10/24 05:21:57;;;;;;;3.97;1.90;;;;;;;-1.10;64.54;97303.50;6374103;27;20057;-63
2022/10/24 05:25:01;;;;;;;6.18;2.92;;;;;;;-1.02;63.73;97295.63;6373656;27;20150;-64
2022/10/24 05:28:04;;;;;;;4.78;1.63;;;;;;;-0.87;63.87;97299.78;6373560;27;20042;-64
2022/10/24 05:31:08;;;;;;;4.45;2.83;;;;;;;-0.86;64.09;97296.31;6372603;27;20035;-64
2022/10/24 05:34:15;;;;;;;6.40;2.97;;;;;;;-1.03;64.50;97289.63;6373751;27;20130;-64
2022/10/24 05:37:22;;;;;;;6.07;2.67;;;;;;;-1.01;65.24;97287.88;6373529;27;20142;-63
2022/10/24 05:40:27;;;;;;;4.28;2.13;;;;;;;-0.84;65.46;97284.25;6373671;27;20039;-63
2022/10/24 05:43:29;;;;;;;3.80;2.22;;;;;;;-0.46;64.14;97288.88;6373471;27;20382;-63
2022/10/24 05:46:32;;;;;;;8.15;2.78;;;;;;;-0.42;63.31;97292.28;6373021;27;20055;-63
2022/10/24 05:49:37;;;;;;;5.10;2.58;;;;;;;-0.42;63.56;97276.78;6373454;27;20554;-63
2022/10/24 05:52:41;;;;;;;5.22;2.92;;;;;;;-0.47;64.58;97275.09;6373185;27;20039;-63
2022/10/24 05:55:42;;;;;;;7.70;3.28;;;;;;;-0.23;63.92;97265.25;6373134;27;20043;-64
2022/10/24 05:58:46;;;;;;;7.88;2.75;;;;;;;-0.09;63.37;97271.03;6373192;27;20039;-63
2022/10/24 06:01:55;;;;;;;9.35;3.47;;;;;;;-0.01;63.38;97261.44;6373222;27;20125;-65
2022/10/24 06:05:00;;;;;;;9.02;3.60;;;;;;;-0.02;63.95;97262.31;6372731;27;20039;-64
2022/10/24 06:08:04;;;;;;;5.70;3.10;;;;;;;-0.07;64.14;97269.28;6372949;27;20484;-64
2022/10/24 06:11:12;;;;;;;6.68;3.67;;;;;;;0.08;63.64;97267.31;6372771;27;20043;-63
2022/10/24 06:14:18;;;;;;;6.03;3.33;;;;;;;0.05;64.20;97262.22;6372684;27;20076;-64
2022/10/24 06:17:25;;;;;;;6.43;3.10;;;;;;;0.04;64.77;97260.50;6372365;27;20121;-63
2022/10/24 06:20:29;;;;;;;5.18;2.63;;;;;;;0.17;64.33;97257.69;6372409;27;20202;-64
2022/10/24 06:23:31;;;;;;;7.57;3.72;;;;;;;0.02;65.15;97249.31;6372536;27;20043;-63
2022/10/24 06:26:36;;;;;;;6.93;3.55;;;;;;;0.19;64.97;97247.28;6372388;27;20035;-63
2022/10/24 06:29:38;;;;;;;6.78;3.17;;;;;;;0.18;65.07;97255.94;6372202;27;20039;-64
2022/10/24 06:32:42;;;;;;;5.95;2.22;;;;;;;0.43;64.76;97244.28;6372322;27;20043;-63
2022/10/24 06:35:44;;;;;;;4.63;3.00;;;;;;;0.35;64.84;97246.16;6372027;27;20041;-64
2022/10/24 06:38:47;;;;;;;;;;;;;;;0.69;64.00;97248.09;6372397;27;20031;-64
2022/10/24 06:41:52;;;;;;;4.13;2.13;;;;;;;0.68;64.03;97249.00;6371884;27;19926;-63
2022/10/24 06:44:56;;;;;;;8.73;2.78;;;;;;;0.82;63.11;97240.91;6370991;27;20055;-63
2022/10/24 06:48:02;;;;;;;4.53;2.50;;;;;;;0.74;63.49;97243.69;6371602;27;20035;-63
2022/10/24 06:51:06;;;;;;;3.80;2.42;;;;;;;0.84;63.37;97233.97;6372022;27;20035;-63
2022/10/24 06:54:14;;;;;;;6.57;2.63;;;;;;;1.06;62.91;97234.38;6371605;27;20047;-64
2022/10/24 06:57:18;;;;;;;5.15;2.05;;;;;;;0.97;63.00;97240.63;6371702;27;20035;-64
2022/10/24 07:00:26;;;;;;;7.75;2.85;;;;;;;0.98;63.00;97236.28;6371495;27;20039;-63
2022/10/24 07:03:28;;;;;;;3.45;2.30;;;;;;;1.05;63.28;97237.88;6371078;27;20421;-64
2022/10/24 07:06:32;;;;;;;;;;;;;;;1.13;62.92;97230.75;6371879;27;20043;-63
2022/10/24 07:09:37;;;;;;;3.60;2.40;;;;;;;1.12;62.84;97218.69;6371134;27;19919;-64
2022/10/24 07:12:41;;;;;;;5.22;2.67;;;;;;;1.03;62.79;97222.34;6371170;27;20417;-63
2022/10/24 07:15:43;;;;;;;6.72;3.38;;;;;;;1.03;63.46;97200.75;6370693;27;20043;-63
2022/10/24 07:18:45;;;;;;;6.50;2.50;;;;;;;1.00;63.68;97198.25;6371176;27;20527;-64
2022/10/24 07:21:56;;;;;;;9.85;3.90;;;;;;;1.20;63.47;97200.41;6371245;27;20046;-64
2022/10/24 07:25:03;;;;;;;5.57;3.22;;;;;;;1.19;63.53;97196.94;6371074;27;20306;-63
2022/10/24 07:28:06;;;;;;;6.28;2.58;;;;;;;1.21;63.62;97192.56;6371109;27;20405;-63
2022/10/24 07:31:09;;;;;;;6.60;3.40;;;;;;;1.43;62.34;97198.13;6370185;27;20050;-65
2022/10/24 07:34:13;;;;;;;5.13;3.20;;;;;;;1.37;62.82;97184.44;6371183;27;20039;-64
2022/10/24 07:37:15;;;;;;;7.80;2.70;;;;;;;1.51;62.34;97200.53;6371098;28;20050;-64
2022/10/24 07:40:21;;;;;;;6.78;2.60;;;;;;;1.44;62.54;97183.41;6371022;28;20033;-64
2022/10/24 07:43:25;;;;;;;7.03;2.92;;;;;;;1.45;62.50;97182.53;6370929;28;20031;-64
2022/10/24 07:46:32;;;;;;;6.07;2.45;;;;;;;1.56;62.63;97190.91;6370465;27;20054;-63
2022/10/24 07:49:35;;;;;;;4.85;2.67;;;;;;;1.51;62.20;97170.25;6370610;28;20043;-64
2022/10/24 07:52:36;;;;;;;5.13;2.65;;;;;;;1.54;61.80;97192.69;6370048;28;20079;-63
2022/10/24 07:55:42;;;;;;;5.53;3.17;;;;;;;1.53;61.92;97188.41;6371319;27;20046;-64
2022/10/24 07:58:48;;;;;;;7.38;2.50;;;;;;;1.28;62.29;97157.84;6374838;27;20564;-64
2022/10/24 08:01:52;;;;;;;8.10;3.60;;;;;;;1.34;62.99;97162.88;6375799;27;20126;-63
2022/10/24 08:04:59;;;;;;;9.13;2.95;;;;;;;1.39;63.04;97161.91;6375500;27;20035;-63
2022/10/24 08:08:01;;;;;;;8.85;4.25;;;;;;;1.37;63.09;97156.78;6375864;27;20198;-63
2022/10/24 08:11:10;;;;;;;5.88;3.97;;;;;;;1.46;63.17;97168.66;6375778;27;20035;-64
2022/10/24 08:14:17;;;;;;;4.90;2.92;;;;;;;1.58;62.29;97160.59;6375834;27;20134;-63
2022/10/24 08:17:24;;;;;;;5.97;4.22;;;;;;;1.48;63.27;97165.16;6375638;27;20497;-63
2022/10/24 08:20:26;;;;;;;8.40;3.83;;;;;;;1.48;63.02;97166.91;6375108;27;20045;-63
2022/10/24 08:23:33;;;;;;;6.05;3.75;;;;;;;1.52;62.99;97158.16;6375417;27;20043;-64
2022/10/24 08:26:39;;;;;;;9.25;4.05;;;;;;;1.59;62.60;97151.94;6374859;27;20040;-64
2022/10/24 08:29:40;;;;;;;6.25;2.92;;;;;;;1.71;62.37;97149.03;6374958;27;20523;-64
2022/10/24 08:32:42;;;;;;;7.78;4.00;;;;;;;1.68;62.31;97145.66;6375389;27;20501;-64
2022/10/24 08:35:47;;;;;;;11.63;4.85;;;;;;;1.61;62.57;97144.94;6372919;27;20050;-64
2022/10/24 08:38:51;;;;;;;7.45;4.10;;;;;;;1.66;62.48;97152.63;6375084;27;20405;-63
2022/10/24 08:42:07;;;;;;;10.73;4.68;;;;;;;1.58;63.02;97139.84;6375057;27;20047;-64
2022/10/24 08:45:25;;;;;;;8.23;3.72;;;;;;;1.65;63.15;97131.03;6374273;27;20141;-64
2022/10/24 08:48:38;;;;;;;9.85;3.17;;;;;;;1.69;62.98;97126.59;6374867;27;20043;-64
2022/10/24 08:51:58;;;;;;;8.43;4.00;;;;;;;1.85;63.04;97133.09;6373138;27;20065;-64
2022/10/24 08:55:15;;;;;;;7.40;3.88;;;;;;;1.89;62.46;97128.69;6374601;27;20133;-64
2022/10/24 08:58:23;;;;;;;10.45;4.40;;;;;;;1.72;63.43;97122.19;6374436;27;20042;-64
2022/10/24 09:01:38;;;;;;;6.00;3.13;;;;;;;1.71;63.26;97127.41;6373234;27;20505;-64
2022/10/24 09:04:48;;;;;;;8.40;3.90;;;;;;;1.84;63.41;97121.03;6374290;27;20031;-65
2022/10/24 09:08:01;;;;;;;6.57;3.38;;;;;;;1.98;62.66;97124.13;6373224;27;20417;-63
2022/10/24 09:11:05;;;;;;;9.05;3.80;;;;;;;1.95;62.81;97112.94;6373413;27;20039;-64
2022/10/24 09:14:16;;;;;;;6.43;2.22;;;;;;;1.95;63.37;97116.41;6373729;27;20266;-63
2022/10/24 09:17:31;;;;;;;7.00;3.67;;;;;;;1.86;63.12;97118.38;6373983;27;20054;-64
2022/10/24 09:20:33;;;;;;;6.47;3.53;;;;;;;1.84;63.17;97114.97;6373319;27;20069;-63
2022/10/24 09:23:40;;;;;;;10.77;3.20;;;;;;;1.93;63.48;97105.22;6373889;27;20039;-63
2022/10/24 09:26:47;;;;;;;7.32;4.05;;;;;;;1.84;63.40;97100.28;6373860;27;20047;-63
2022/10/24 09:29:52;;;;;;;7.38;3.25;;;;;;;2.00;63.42;97095.50;6373849;27;20383;-64
2022/10/24 09:32:56;;;;;;;6.18;3.70;;;;;;;2.04;63.33;97097.16;6373394;27;20050;-64
2022/10/24 09:36:00;;;;;;;8.55;3.70;;;;;;;2.24;62.47;97105.22;6371551;27;20506;-63
2022/10/24 09:39:24;;;;;;;6.85;3.38;;;;;;;2.33;62.00;97096.31;6372138;27;20126;-64
2022/10/24 09:42:25;;;;;;;4.17;2.87;;;;;;;2.17;62.20;97093.28;6373115;27;20050;-64
2022/10/24 09:45:30;;;;;;;7.10;3.20;;;;;;;2.13;62.89;97094.28;6372412;27;20054;-64
2022/10/24 09:48:55;;;;;;;7.28;3.08;;;;;;;2.29;62.06;97086.91;6371980;27;20039;-64
2022/10/24 09:52:03;;;;;;;8.68;3.83;;;;;;;2.25;62.13;97088.75;6373257;27;20122;-64
2022/10/24 09:55:20;;;;;;;9.43;4.55;;;;;;;2.33;62.48;97082.50;6373291;27;20065;-63
2022/10/24 09:58:34;;;;;;;8.85;3.85;;;;;;;2.30;61.84;97082.59;6371794;27;20059;-64
2022/10/24 10:01:39;;;;;;;;;;;;;;;2.34;61.39;97081.59;6373207;27;20569;-64
2022/10/24 10:04:43;;;;;;;8.45;5.32;;;;;;;2.22;62.16;97073.25;6371112;27;19920;-64
2022/10/24 10:07:49;;;;;;;8.30;4.18;;;;;;;2.35;61.96;97075.47;6372624;27;20063;-65
2022/10/24 10:11:10;;;;;;;9.18;4.10;;;;;;;2.44;61.43;97059.66;6372610;27;20414;-64
2022/10/24 10:14:22;;;;;;;8.57;3.72;;;;;;;2.36;61.73;97061.63;6371054;27;20053;-64
2022/10/24 10:17:30;;;;;;;7.60;3.40;;;;;;;2.36;61.70;97046.03;6371465;27;20134;-64
2022/10/24 10:20:41;;;;;;;4.85;3.20;;;;;;;2.38;62.16;97045.09;6372048;27;20358;-64
2022/10/24 10:23:45;;;;;;;6.10;3.90;;;;;;;2.25;62.44;97044.59;6371655;27;20059;-64
2022/10/24 10:26:49;;;;;;;9.43;3.85;;;;;;;2.13;63.09;97054.50;6371915;27;20050;-63
2022/10/24 10:30:16;;;;;;;4.22;2.63;;;;;;;2.16;62.71;97034.50;6371750;27;20047;-64
2022/10/24 10:33:31;;;;;;;4.95;3.33;;;;;;;2.34;62.37;97037.44;6372164;27;20408;-64
2022/10/24 10:36:56;;;;;;;4.18;2.83;;;;;;;2.19;63.26;97039.59;6372247;27;20039;-64
2022/10/24 10:40:04;;;;;;;6.32;3.45;;;;;;;2.18;63.00;97031.84;6371781;27;20070;-64
2022/10/24 10:43:26;;;;;;;7.85;3.15;;;;;;;2.19;63.14;97024.00;6371961;27;20134;-64
2022/10/24 10:46:52;;;;;;;6.20;3.75;;;;;;;2.06;63.87;97022.66;6369797;27;20054;-63
2022/10/24 10:49:58;;;;;;;11.60;3.65;;;;;;;1.96;64.34;97026.44;6363695;27;20075;-64
2022/10/24 10:53:28;;;;;;;5.40;3.15;;;;;;;2.03;63.98;97027.94;6370171;27;20085;-64
2022/10/24 10:56:51;;;;;;;6.22;3.08;;;;;;;2.00;64.53;97026.28;6370670;27;20504;-65
2022/10/24 11:00:11;;;;;;;4.18;2.60;;;;;;;2.14;64.20;97018.09;6371625;27;20129;-63
2022/10/24 11:03:25;;;;;;;6.60;3.42;;;;;;;2.15;64.36;97014.63;6371354;27;20192;-65
2022/10/24 11:06:40;;;;;;;4.28;3.30;;;;;;;2.14;64.69;97015.50;6371356;27;20046;-64
2022/10/24 11:09:57;;;;;;;5.57;2.63;;;;;;;2.09;64.86;97001.81;6370282;27;20043;-64
2022/10/24 11:13:06;;;;;;;3.85;2.95;;;;;;;2.19;64.67;96998.06;6369518;27;20049;-64
2022/10/24 11:16:21;;;;;;;4.13;1.65;;;;;;;2.17;64.85;96989.44;6370000;27;20126;-64
2022/10/24 11:19:51;;;;;;;4.82;2.50;;;;;;;2.13;65.47;96981.81;6371005;27;20462;-64
2022/10/24 11:23:12;;;;;;;5.32;3.38;;;;;;;2.08;65.75;96992.31;6370982;27;20047;-63
2022/10/24 11:26:27;;;;;;;4.68;1.95;;;;;;;2.31;65.01;96985.59;6370667;27;20042;-64
2022/10/24 11:29:47;;;;;;;4.70;3.22;;;;;;;2.42;64.62;96981.78;6370857;27;20130;-64
2022/10/24 11:33:01;;;;;;;7.45;4.25;;;;;;;2.33;65.21;96986.41;6370558;27;20050;-65
2022/10/24 11:36:13;;;;;;;6.18;3.53;;;;;;;2.55;64.82;96987.47;6370791;28;20130;-65
2022/10/24 11:39:31;;;;;;;7.00;2.92;;;;;;;2.48;65.21;96972.94;6370694;28;20043;-64
2022/10/24 11:43:06;;;;;;;7.20;3.97;;;;;;;2.49;65.38;96972.03;6369747;28;20073;-64
2022/10/24 11:46:41;;;;;;;6.05;3.00;;;;;;;2.50;65.35;96955.56;6370193;28;20058;-65
2022/10/24 11:49:52;;;;;;;6.63;2.25;;;;;;;2.55;65.28;96964.06;6370984;28;20046;-64
2022/10/24 11:53:22;;;;;;;4.05;3.30;;;;;;;2.55;65.48;96963.19;6370763;28;20039;-65
2022/10/24 11:56:53;;;;;;;6.53;4.32;;;;;;;2.48;66.04;96972.94;6370711;28;20045;-65
2022/10/24 11:59:58;;;;;;;3.03;2.63;;;;;;;2.51;66.00;96962.47;6370710;28;20043;-65
2022/10/24 12:03:22;;;;;;;5.43;3.20;;;;;;;2.52;65.76;96969.38;6369103;28;20043;-65
2022/10/24 12:07:02;;;;;;;11.10;4.47;;;;;;;2.53;65.70;96952.88;6370469;28;20043;-64
2022/10/24 12:10:27;;;;;;;7.68;4.10;;;;;;;2.45;66.30;96957.47;6370157;28;20047;-64
2022/10/24 12:13:54;;;;;;;7.05;3.53;;;;;;;2.50;66.10;96954.72;6369622;28;20039;-64
2022/10/24 12:17:22;;;;;;;3.35;2.60;;;;;;;2.50;66.29;96950.38;6370360;28;20417;-64
2022/10/24 12:20:25;;;;;;;5.38;3.53;;;;;;;2.43;66.18;96946.25;6370147;28;20087;-64
2022/10/24 12:23:32;;;;;;;6.40;2.90;;;;;;;2.48;66.20;96946.97;6370101;28;20042;-64
2022/10/24 12:26:36;;;;;;;6.68;3.90;;;;;;;2.41;66.66;96945.47;6368855;28;20039;-64
2022/10/24 12:29:42;;;;;;;4.43;3.50;;;;;;;2.57;65.94;96946.69;6368808;28;20433;-64
2022/10/24 12:33:04;;;;;;;4.97;3.17;;;;;;;2.56;65.90;96933.75;6370367;28;20047;-64
2022/10/24 12:36:08;;;;;;;6.25;3.88;;;;;;;2.45;66.38;96944.47;6369003;28;20498;-63
2022/10/24 12:39:27;;;;;;;4.93;3.20;;;;;;;2.49;66.30;96943.47;6370047;28;20425;-64
2022/10/24 12:42:34;;;;;;;4.80;3.75;;;;;;;2.41;66.81;96948.09;6371294;27;20121;-64
2022/10/24 12:45:38;;;;;;;6.57;3.67;;;;;;;2.44;66.09;96938.44;6374658;27;20540;-63
2022/10/24 12:48:56;;;;;;;5.43;4.28;;;;;;;2.50;66.51;96928.75;6374583;27;20039;-64
2022/10/24 12:52:29;;;;;;;8.82;4.65;;;;;;;2.45;66.48;96931.50;6374726;27;20041;-64
2022/10/24 12:55:40;;;;;;;6.50;4.20;;;;;;;2.41;66.35;96942.88;6374411;27;20043;-63
2022/10/24 12:58:54;;;;;;;6.80;4.13;;;;;;;2.46;66.25;96927.97;6374201;27;20043;-66
2022/10/24 13:02:12;;;;;;;5.40;3.58;;;;;;;2.43;66.27;96928.94;6374351;27;20509;-63
2022/10/24 13:05:52;;;;;;;5.68;3.92;;;;;;;2.39;66.30;96929.09;6373862;27;20130;-64
2022/10/24 13:09:25;;;;;;;5.78;3.25;;;;;;;2.38;66.15;96923.06;6362838;27;20047;-64
2022/10/24 13:13:04;;;;;;;2.15;1.88;;;;;;;2.41;66.39;96929.91;6372215;27;20051;-63
2022/10/24 13:16:43;;;;;;;3.80;2.45;;;;;;;2.40;66.33;96920.38;6373783;27;20035;-64
2022/10/24 13:19:46;;;;;;;4.60;4.03;;;;;;;2.38;66.26;96914.41;6296795;27;20135;-64
2022/10/24 13:22:59;;;;;;;4.93;3.67;;;;;;;2.31;66.61;96918.09;6373840;27;20528;-64
2022/10/24 13:26:05;;;;;;;5.38;3.72;;;;;;;2.30;66.46;96901.66;6372047;27;20059;-65
2022/10/24 13:29:54;;;;;;;6.57;3.35;;;;;;;2.41;66.31;96920.34;6371752;27;20043;-63
2022/10/24 13:33:32;;;;;;;3.92;2.88;;;;;;;2.35;66.16;96911.91;6370789;27;20054;-64
2022/10/24 13:36:35;;;;;;;4.78;3.45;;;;;;;2.41;66.08;96909.13;6372856;27;20080;-64
2022/10/24 13:39:53;;;;;;;3.97;2.72;;;;;;;2.47;65.47;96908.94;6373157;27;20099;-65
2022/10/24 13:43:00;;;;;;;4.28;3.40;;;;;;;2.32;66.33;96909.41;6373397;27;20133;-65
2022/10/24 13:46:08;;;;;;;5.82;2.90;;;;;;;2.39;65.58;96911.75;6372731;27;20047;-63
2022/10/24 13:49:24;;;;;;;7.38;4.32;;;;;;;2.44;65.70;96903.84;6372983;27;20058;-64
2022/10/24 13:52:45;;;;;;;6.43;2.97;;;;;;;2.41;65.73;96906.53;6372815;27;20121;-65
2022/10/24 13:55:50;;;;;;;4.78;3.17;;;;;;;2.41;65.78;96893.53;6372710;27;20099;-65
2022/10/24 13:58:56;;;;;;;5.63;3.42;;;;;;;2.29;65.93;96893.91;6372804;27;20035;-66
2022/10/24 14:02:23;;;;;;;4.75;2.92;;;;;;;2.39;65.52;96895.34;6371456;27;20467;-64
2022/10/24 14:05:37;;;;;;;3.47;3.10;;;;;;;2.41;65.15;96896.13;6372718;27;20039;-64
2022/10/24 14:08:53;;;;;;;5.90;3.45;;;;;;;2.40;65.63;96886.63;6372339;27;20126;-65
2022/10/24 14:11:58;;;;;;;5.90;3.08;;;;;;;2.42;64.85;96884.84;6371395;27;20103;-65
2022/10/24 14:15:15;;;;;;;8.80;3.78;;;;;;;2.51;64.46;96884.53;6372908;27;20133;-64
2022/10/24 14:18:21;;;;;;;3.75;2.83;;;;;;;2.41;64.55;96880.56;6372730;27;20035;-64
2022/10/24 14:21:25;;;;;;;6.40;4.55;;;;;;;2.41;64.68;96867.56;6372608;27;20133;-65
2022/10/24 14:24:31;;;;;;;3.83;2.95;;;;;;;2.42;64.77;96869.25;6372323;27;20039;-64
2022/10/24 14:27:35;;;;;;;6.18;4.05;;;;;;;2.40;64.69;96871.06;6353099;27;20051;-64
2022/10/24 14:30:51;;;;;;;4.85;3.50;;;;;;;2.48;64.54;96871.66;6370601;27;20134;-65
2022/10/24 14:33:57;;;;;;;5.35;3.72;;;;;;;2.38;64.38;96868.53;6372117;27;20047;-64
2022/10/24 14:37:06;;;;;;;5.00;3.40;;;;;;;2.42;64.78;96861.47;6372299;27;20051;-65
2022/10/24 14:40:17;;;;;;;7.03;4.35;;;;;;;2.32;65.19;96857.47;6372303;27;20129;-64
2022/10/24 14:43:30;;;;;;;5.72;3.63;;;;;;;2.30;64.77;96848.91;6371335;27;20118;-64
2022/10/24 14:46:37;;;;;;;3.97;3.30;;;;;;;2.32;65.17;96844.47;6370098;27;20531;-65
2022/10/24 14:49:41;;;;;;;6.72;4.60;;;;;;;2.39;64.26;96843.41;6372045;27;20035;-65
2022/10/24 14:52:45;;;;;;;6.55;3.47;;;;;;;2.22;65.31;96841.34;6371719;27;20035;-65
2022/10/24 14:55:59;;;;;;;4.10;3.28;;;;;;;2.32;65.09;96832.38;6371649;27;20074;-64
2022/10/24 14:59:06;;;;;;;5.40;3.20;;;;;;;2.10;65.96;96829.63;6371416;27;20067;-64
2022/10/24 15:02:32;;;;;;;7.18;3.20;;;;;;;2.18;65.20;96832.81;6371358;27;20088;-64